Tiempo atmosférico en la estación meteorológica de Torremolinos, Málaga (85 m.)



Fecha
DESCASC
Temp. máxima en grados centígrados (hora)
DESCASC
Temp. mínima en grados centígrados (hora)
DESCASC
Temp. media en grados centígrados
DESCASC
Racha de viento máxima en m/sg (hora)
DESCASC
Velocidad máxima media en intervalos de 10 minutos(hora)
DESCASC
Precipitaciones diarias en mm
DESCASC
Precipitaciones de 00:00 a 06:00 en mm
DESCASC
Precipitaciones de 06:00 a 12:00 en mm
DESCASC
Precipitaciones de 12:00 a 18:00 en mm
DESCASC
Precipitaciones de 18:00 a 24:00 en mm
DESCASC
24-10-2019 22.9 (16:30) 12.8 (00:00) 17.8 12.5 (18:30) 5.28 (20:40) 0 0 0 0 0
09-11-2019 20.3 (16:00) 13.2 (00:00) 16.7 11.67 (02:20) 5.28 (02:00) 0 0 0 0 0
16-11-2019 17.2 (15:30) 8.8 (00:00) 13 11.94 (12:20) 5 (10:10) 0 0 0 0 0
08-11-2019 18.6 (16:10) 12.6 (00:00) 15.6 13.61 (01:20) 5 (01:20) 0 0 0 0 0
31-10-2019 27.2 (14:00) 21.3 (07:40) 24.3 11.11 (04:50) 5 (03:10) 0 0 0 0 0
29-10-2019 28 (14:00) 15.6 (00:00) 21.8 10.28 (08:30) 5 (08:30) 0 0 0 0 0
12-11-2019 20.4 (14:50) 15 (00:00) 17.7 11.11 (04:40) 4.72 (06:10) 0 0 0 0 0
18-10-2019 26.4 (17:30) 17.1 (00:00) 21.8 11.11 (01:10) 4.44 (00:50) 0 0 0 0 0
30-10-2019 28.1 (15:10) 19.9 (00:00) 24 9.17 (05:00) 4.17 (03:10) 0 0 0 0 0
02-11-2019 23.6 (12:30) 18.1 (00:00) 20.9 8.33 (13:00) 3.89 (12:40) 0 0 0 0 0
14-11-2019 17.5 (12:50) 12.5 (00:00) 15 14.44 (15:20) 3.89 (15:20) 0 0 0 0 0
11-11-2019 18.2 (16:10) 13.3 (07:20) 15.8 9.17 (17:20) 3.89 (17:20) 0 0 0 0 0
10-11-2019 19.4 (15:30) 14.2 (00:00) 16.8 14.17 (10:50) 3.89 (10:50) 0 0 0 0 0
19-10-2019 25.3 (15:20) 19.3 (00:00) 22.3 8.61 (16:20) 3.89 (15:50) 0 0 0 0 0
20-10-2019 20.5 (16:40) 13.8 (00:00) 17.2 9.17 (04:20) 3.89 (04:20) 7.8 6.6 1.2 0 0
23-10-2019 19.6 (17:50) 11.7 (00:00) 15.7 9.44 (14:00) 3.89 (15:20) 0 0 0 0 0
01-11-2019 27.4 (15:40) 21.6 (00:00) 24.5 10 (10:50) 3.61 (11:20) 0 0 0 0 0
22-10-2019 21 (16:10) 12.9 (00:00) 16.9 9.17 (15:10) 3.61 (15:10) 0 0 0 0 0
07-11-2019 21.4 (12:50) 13.4 (00:00) 17.4 11.39 (21:50) 3.61 (23:50) 1 0 0 1 0
28-10-2019 21.3 (13:00) 14.8 (00:00) 18 6.11 (16:20) 3.61 (16:20) 0 0 0 0 0
06-11-2019 21.2 (14:40) 13.6 (00:00) 17.4 11.94 (13:50) 3.33 (03:50) 0 0 0 0 0
03-11-2019 25.4 (14:30) 17 (00:00) 21.2 10 (14:40) 3.33 (19:30) 0 0 0 0 0
21-10-2019 20.1 (15:10) 14.3 (00:00) 17.2 9.72 (05:40) 3.33 (04:30) 0 0 0 0 0
15-11-2019 16.1 (13:30) 9.8 (00:00) 13 9.44 (00:10) 3.33 (00:20) 0 0 0 0 0
05-11-2019 20.5 (16:20) 15.2 (00:00) 17.8 10 (07:20) 3.06 (07:50) 0.6 0.4 0.2 0 0
26-10-2019 23.3 (12:30) 13.7 (00:00) 18.5 4.44 (14:10) 2.5 (14:10) 0 0 0 0 0
04-11-2019 23.8 (15:00) 16.9 (00:00) 20.3 6.11 (08:10) 2.5 (08:20) 0 0 0 0 0
13-11-2019 21.7 (13:40) 15.1 (00:00) 18.4 8.33 (10:50) 2.5 (06:10) 0 0 0 0 0
25-10-2019 23.5 (17:00) 14.7 (00:00) 19.1 3.61 (10:20) 2.22 (12:40) 0 0 0 0 0
27-10-2019 22 (13:30) 14.4 (00:00) 18.2 3.89 (13:00) 2.22 (13:50) 0 0 0 0 0

Gráficas

Temp. máximas Temp. mínimas Temp. medias Precipitaciones Rachas de viento máximas Velocidades máximas media en intervalos de 10 minutos

Datos horarios

Fecha y hora oficial Temperatura (ºC) Velocidad del viento (km/h) Dirección del viento Racha (km/h) Dirección de racha Precipitación (mm) Presión (hPa) Tendencia (hPa) Humedad (%)
2019-11-16 23:00:00 11.6 3 Noroeste 22 Norte 0 -- -- 41
2019-11-16 22:00:00 12 4 Noroeste 22 Norte 0 -- -- 39
2019-11-16 21:00:00 12.2 4 Norte 23 Norte 0 -- -- 38
2019-11-16 20:00:00 12.5 6 Norte 32 Norte 0 -- -- 39
2019-11-16 19:00:00 13.3 7 Norte 30 Norte 0 -- -- 37
2019-11-16 18:00:00 14 5 Norte 29 Norte 0 -- -- 34
2019-11-16 17:00:00 15.3 5 Norte 21 Noroeste 0 -- -- 29
2019-11-16 16:00:00 17.1 6 Norte 26 Norte 0 -- -- 26
2019-11-16 15:00:00 16.8 7 Norte 28 Nordeste 0 -- -- 28
2019-11-16 14:00:00 16.1 9 Norte 36 Nordeste 0 -- -- 31
2019-11-16 13:00:00 15.5 14 Norte 43 Noroeste 0 -- -- 33
2019-11-16 12:00:00 14.7 13 Norte 35 Norte 0 -- -- 37
2019-11-16 11:00:00 13.1 7 Norte 41 Norte 0 -- -- 39
2019-11-16 10:00:00 11.2 16 Noroeste 38 Noroeste 0 -- -- 43
2019-11-16 09:00:00 9.7 13 Noroeste 32 Noroeste 0 -- -- 48
2019-11-16 08:00:00 8.8 9 Noroeste 29 Norte 0 -- -- 49
2019-11-16 07:00:00 9 12 Noroeste 28 Norte 0 -- -- 50
2019-11-16 06:00:00 9.4 11 Noroeste 34 Norte 0 -- -- 49
2019-11-16 05:00:00 9.8 15 Noroeste 32 Noroeste 0 -- -- 48
2019-11-16 04:00:00 10.2 13 Noroeste 31 Noroeste 0 -- -- 47
2019-11-16 03:00:00 10.8 12 Noroeste 28 Noroeste 0 -- -- 46
2019-11-16 02:00:00 11 8 Norte 21 Norte 0 -- -- 46
2019-11-16 01:00:00 10.7 3 Oeste 14 Norte 0 -- -- 47
2019-11-16 00:00:00 10.5 4 Noroeste 14 Noroeste 0 -- -- 48
2019-11-15 23:00:00 10.7 6 Norte 23 Noroeste 0 -- -- 47
2019-11-15 22:00:00 10.3 4 Noroeste 13 Noroeste 0 -- -- 50
2019-11-15 21:00:00 10.5 0 Calma 14 Noroeste 0 -- -- 50
2019-11-15 20:00:00 11.6 4 Norte 17 Norte 0 -- -- 47
2019-11-15 19:00:00 11.8 3 Nordeste 19 Nordeste 0 -- -- 47
2019-11-15 18:00:00 12.3 4 Norte 24 Nordeste 0 -- -- 44
2019-11-15 17:00:00 13.8 6 Norte 31 Nordeste 0 -- -- 37
2019-11-15 16:00:00 15.5 8 Norte 26 Norte 0 -- -- 29
2019-11-15 15:00:00 15 5 Norte 28 Nordeste 0 -- -- 34
2019-11-15 14:00:00 15.7 8 Nordeste 31 Norte 0 -- -- 34
2019-11-15 13:00:00 15.2 7 Noroeste 24 Nordeste 0 -- -- 36
2019-11-15 12:00:00 15.2 8 Norte 31 Norte 0 -- -- 37
2019-11-15 11:00:00 14 6 Norte 28 Nordeste 0 -- -- 43
2019-11-15 10:00:00 12.1 5 Norte 27 Norte 0 -- -- 47
2019-11-15 09:00:00 10.4 4 Norte 27 Norte 0 -- -- 52
2019-11-15 08:00:00 10.1 6 Norte 28 Norte 0 -- -- 51
2019-11-15 07:00:00 9.9 5 Norte 15 Nordeste 0 -- -- 50
2019-11-15 06:00:00 11 3 Noroeste 21 Noroeste 0 -- -- 43
2019-11-15 05:00:00 10.8 3 Norte 17 Noroeste 0 -- -- 50
2019-11-15 04:00:00 11.9 4 Norte 22 Noroeste 0 -- -- 50
2019-11-15 03:00:00 12.2 7 Norte 27 Norte 0 -- -- 48
2019-11-15 02:00:00 12 4 Norte 27 Noroeste 0 -- -- 49
2019-11-15 01:00:00 12.7 9 Norte 34 Noroeste 0 -- -- 49
2019-11-15 00:00:00 12.8 11 Norte 28 Noroeste 0 -- -- 49
2019-11-14 23:00:00 13 6 Norte 26 Noroeste 0 -- -- 48
2019-11-14 22:00:00 13.2 5 Norte 26 Norte 0 -- -- 48
2019-11-14 21:00:00 13.3 10 Norte 33 Noroeste 0 -- -- 48
2019-11-14 20:00:00 13.4 8 Norte 36 Norte 0 -- -- 46
2019-11-14 19:00:00 13.7 9 Norte 36 Nordeste 0 -- -- 48
2019-11-14 18:00:00 14.1 9 Norte 32 Norte 0 -- -- 50
2019-11-14 17:00:00 14.3 6 Norte 34 Nordeste 0 -- -- 52
2019-11-14 16:00:00 13.6 9 Norte 52 Norte 0 -- -- 57
2019-11-14 15:00:00 15 5 Norte 26 Noroeste 0 -- -- 68
2019-11-14 14:00:00 15.8 6 Norte 22 Norte 0 -- -- 69
2019-11-14 13:00:00 17.3 5 Noroeste 22 Sudoeste 0 -- -- 50
2019-11-14 12:00:00 16.8 12 Sudoeste 25 Sudoeste 0 -- -- 56
2019-11-14 11:00:00 17.2 7 Sudoeste 18 Nordeste 0 -- -- 49
2019-11-14 10:00:00 16.6 5 Sudoeste 33 Oeste 0 -- -- 51
2019-11-14 09:00:00 14.6 7 Norte 35 Nordeste 0 -- -- 55
2019-11-14 08:00:00 13.5 10 Norte 27 Noroeste 0 -- -- 61
2019-11-14 07:00:00 14.3 5 Norte 15 Norte 0 -- -- 65
2019-11-14 06:00:00 12.8 4 Norte 10 Norte 0 -- -- 73
2019-11-14 05:00:00 13.4 0 Calma 9 Sudoeste 0 -- -- 70
2019-11-14 04:00:00 12.6 0 Calma 4 Oeste 0 -- -- 73
2019-11-14 03:00:00 12.8 0 Calma 3 Sudoeste 0 -- -- 71
2019-11-14 02:00:00 13.9 0 Calma 3 Sudoeste 0 -- -- 67
2019-11-14 01:00:00 15 0 Calma 7 Noroeste 0 -- -- 64
2019-11-14 00:00:00 16.2 0 Calma 12 Noroeste 0 -- -- 61
2019-11-13 23:00:00 15.8 0 Calma 8 Oeste 0 -- -- 61
2019-11-13 22:00:00 16.8 3 Sudoeste 12 Oeste 0 -- -- 58
2019-11-13 21:00:00 17 6 Oeste 14 Sudoeste 0 -- -- 63
2019-11-13 20:00:00 16.6 0 Calma 12 Sudoeste 0 -- -- 63
2019-11-13 19:00:00 17.1 0 Calma 8 Nordeste 0 -- -- 64
2019-11-13 18:00:00 18.7 4 Sudoeste 9 Sur 0 -- -- 63
2019-11-13 17:00:00 20.3 4 Sudoeste 17 Este 0 -- -- 54
2019-11-13 16:00:00 20.4 4 Nordeste 17 Este 0 -- -- 56
2019-11-13 15:00:00 20.3 6 Sudeste 20 Este 0 -- -- 56
2019-11-13 14:00:00 21.5 6 Nordeste 23 Nordeste 0 -- -- 49
2019-11-13 13:00:00 21.4 3 Norte 19 Sudoeste 0 -- -- 49
2019-11-13 12:00:00 19.3 6 Sudoeste 22 Oeste 0 -- -- 54
2019-11-13 11:00:00 20 4 Norte 30 Noroeste 0 -- -- 51
2019-11-13 10:00:00 19.3 5 Noroeste 17 Nordeste 0 -- -- 51
2019-11-13 09:00:00 17.1 2 Oeste 15 Noroeste 0 -- -- 57
2019-11-13 08:00:00 16.1 6 Norte 19 Norte 0 -- -- 62
2019-11-13 07:00:00 16 5 Norte 24 Noroeste 0 -- -- 61
2019-11-13 06:00:00 15.9 4 Norte 25 Norte 0 -- -- 57
2019-11-13 05:00:00 15.8 7 Norte 28 Noroeste 0 -- -- 57
2019-11-13 04:00:00 15.4 5 Norte 21 Noroeste 0 -- -- 57
2019-11-13 03:00:00 15.4 4 Norte 20 Nordeste 0 -- -- 56
2019-11-13 02:00:00 15.2 2 Sudoeste 12 Sudoeste 0 -- -- 51
2019-11-13 01:00:00 15.5 3 Noroeste 18 Este 0 -- -- 48
2019-11-13 00:00:00 16 5 Norte 17 Nordeste 0 -- -- 47
2019-11-12 23:00:00 16.4 4 Nordeste 19 Norte 0 -- -- 45
2019-11-12 22:00:00 16.9 5 Norte 18 Noroeste 0 -- -- 43
2019-11-12 21:00:00 17.1 5 Norte 23 Norte 0 -- -- 42
2019-11-12 20:00:00 17 5 Norte 21 Oeste 0 -- -- 44
2019-11-12 19:00:00 17 6 Norte 28 Nordeste 0 -- -- 45
2019-11-12 18:00:00 17.2 7 Norte 35 Norte 0 -- -- 45
2019-11-12 17:00:00 18 9 Norte 30 Norte 0 -- -- 43
2019-11-12 16:00:00 19.6 8 Norte 36 Norte 0 -- -- 41
2019-11-12 15:00:00 20.3 7 Norte 27 Norte 0 -- -- 44
2019-11-12 14:00:00 20.2 6 Norte 34 Norte 0 -- -- 45
2019-11-12 13:00:00 20.1 9 Norte 25 Noroeste 0 -- -- 47
2019-11-12 12:00:00 19.4 8 Norte 38 Norte 0 -- -- 50
2019-11-12 11:00:00 18.3 12 Norte 34 Norte 0 -- -- 56
2019-11-12 10:00:00 17 6 Noroeste 29 Norte 0 -- -- 63
2019-11-12 09:00:00 15.9 5 Norte 28 Noroeste 0 -- -- 67
2019-11-12 08:00:00 15.1 7 Noroeste 32 Noroeste 0 -- -- 73
2019-11-12 07:00:00 15.3 6 Noroeste 39 Noroeste 0 -- -- 67
2019-11-12 06:00:00 15.5 14 Norte 40 Noroeste 0 -- -- 69
2019-11-12 05:00:00 15.7 10 Norte 40 Norte 0 -- -- 67
2019-11-12 04:00:00 15.9 14 Norte 35 Noroeste 0 -- -- 68
2019-11-12 03:00:00 16.1 13 Norte 37 Norte 0 -- -- 71
2019-11-12 02:00:00 16.3 12 Norte 28 Norte 0 -- -- 72
2019-11-12 01:00:00 16.1 6 Noroeste 18 Norte 0 -- -- 73
2019-11-12 00:00:00 16.6 6 Noroeste 21 Norte 0 -- -- 70
2019-11-11 23:00:00 16.8 8 Noroeste 22 Norte 0 -- -- 69
2019-11-11 22:00:00 17.1 5 Noroeste 23 Noroeste 0 -- -- 68
2019-11-11 21:00:00 16.7 9 Noroeste 23 Noroeste 0 -- -- 71
2019-11-11 20:00:00 16.4 11 Noroeste 22 Noroeste 0 -- -- 72
2019-11-11 19:00:00 16.3 9 Norte 26 Norte 0 -- -- 72
2019-11-11 18:00:00 16.5 6 Norte 33 Norte 0 -- -- 69
2019-11-11 17:00:00 17.4 9 Noroeste 25 Noroeste 0 -- -- 60
2019-11-11 16:00:00 18.1 6 Norte 22 Noroeste 0 -- -- 55
2019-11-11 15:00:00 17.4 6 Norte 22 Noroeste 0 -- -- 56
2019-11-11 14:00:00 17.7 5 Norte 22 Norte 0 -- -- 53
2019-11-11 13:00:00 17.5 7 Norte 22 Nordeste 0 -- -- 52
2019-11-11 12:00:00 16.4 7 Norte 19 Norte 0 -- -- 54
2019-11-11 11:00:00 15.3 4 Norte 17 Norte 0 -- -- 58
2019-11-11 10:00:00 14.1 4 Norte 17 Norte 0 -- -- 60
2019-11-11 09:00:00 13.7 5 Norte 21 Noroeste 0 -- -- 61
2019-11-11 08:00:00 13.3 4 Norte 15 Noroeste 0 -- -- 61
2019-11-11 07:00:00 13.5 3 Norte 10 Norte 0 -- -- 60
2019-11-11 06:00:00 13.7 3 Este 10 Este 0 -- -- 59
2019-11-11 05:00:00 13.7 2 Sudoeste 20 Norte 0 -- -- 59
2019-11-11 04:00:00 14 5 Norte 23 Noroeste 0 -- -- 56
2019-11-11 03:00:00 14.3 6 Norte 20 Norte 0 -- -- 54
2019-11-11 02:00:00 14.5 6 Nordeste 21 Nordeste 0 -- -- 52
2019-11-11 01:00:00 14.5 5 Norte 18 Este 0 -- -- 51
2019-11-11 00:00:00 14.5 4 Norte 14 Nordeste 0 -- -- 49
2019-11-10 23:00:00 14.3 6 Norte 25 Nordeste 0 -- -- 49
2019-11-10 22:00:00 14.4 4 Norte 27 Nordeste 0 -- -- 47
2019-11-10 21:00:00 14.4 5 Norte 25 Norte 0 -- -- 45
2019-11-10 20:00:00 14.9 6 Norte 32 Nordeste 0 -- -- 42
2019-11-10 19:00:00 15.8 6 Norte 29 Noroeste 0 -- -- 38
2019-11-10 18:00:00 17 5 Norte 28 Noroeste 0 -- -- 31
2019-11-10 17:00:00 18.1 12 Norte 43 Nordeste 0 -- -- 30
2019-11-10 16:00:00 19.4 9 Norte 36 Noroeste 0 -- -- 30
2019-11-10 15:00:00 19.1 9 Norte 40 Nordeste 0 -- -- 31
2019-11-10 14:00:00 18.2 12 Norte 40 Nordeste 0 -- -- 37
2019-11-10 13:00:00 18 9 Norte 42 Noroeste 0 -- -- 38
2019-11-10 12:00:00 17.6 9 Norte 35 Noroeste 0 -- -- 41
2019-11-10 11:00:00 16.2 10 Norte 51 Norte 0 -- -- 42
2019-11-10 10:00:00 15.3 12 Norte 39 Norte 0 -- -- 47
2019-11-10 09:00:00 14.4 10 Norte 40 Norte 0 -- -- 50
2019-11-10 08:00:00 14.6 9 Norte 40 Norte 0 -- -- 53
2019-11-10 07:00:00 15.2 9 Norte 30 Norte 0 -- -- 55
2019-11-10 06:00:00 15.9 8 Norte 28 Noroeste 0 -- -- 57
2019-11-10 05:00:00 14.3 0 Calma 5 Sur 0 -- -- 71
2019-11-10 04:00:00 14.5 0 Calma 4 Nordeste 0 -- -- 65
2019-11-10 03:00:00 15.3 0 Calma 12 Norte 0 -- -- 63
2019-11-10 02:00:00 15.1 0 Calma 9 Sudoeste 0 -- -- 51
2019-11-10 01:00:00 14.6 0 Calma 17 Norte 0 -- -- 51
2019-11-10 00:00:00 14.9 2 Noroeste 9 Norte 0 -- -- 53
2019-11-09 23:00:00 15.1 0 Calma 17 Noroeste 0 -- -- 43
2019-11-09 22:00:00 16.5 3 Oeste 20 Norte 0 -- -- 40
2019-11-09 21:00:00 16.5 8 Noroeste 27 Nordeste 0 -- -- 37
2019-11-09 20:00:00 16.2 8 Norte 29 Noroeste 0 -- -- 36
2019-11-09 19:00:00 16.5 7 Norte 30 Nordeste 0 -- -- 34
2019-11-09 18:00:00 17.3 7 Nordeste 27 Nordeste 0 -- -- 29
2019-11-09 17:00:00 18.9 5 Norte 26 Norte 0 -- -- 25
2019-11-09 16:00:00 20.3 6 Norte 22 Nordeste 0 -- -- 26
2019-11-09 15:00:00 19.8 8 Nordeste 33 Nordeste 0 -- -- 27
2019-11-09 14:00:00 19.9 7 Norte 27 Norte 0 -- -- 26
2019-11-09 13:00:00 19.3 7 Norte 23 Noroeste 0 -- -- 28
2019-11-09 12:00:00 17.8 6 Nordeste 21 Norte 0 -- -- 31
2019-11-09 11:00:00 16.8 8 Norte 35 Este 0 -- -- 33
2019-11-09 10:00:00 15.5 9 Norte 37 Noroeste 0 -- -- 36
2019-11-09 09:00:00 13.8 10 Norte 35 Noroeste 0 -- -- 43
2019-11-09 08:00:00 13.2 8 Norte 30 Noroeste 0 -- -- 42
2019-11-09 07:00:00 13.5 5 Oeste 23 Noroeste 0 -- -- 40
2019-11-09 06:00:00 13.3 6 Noroeste 34 Norte 0 -- -- 41
2019-11-09 05:00:00 13.4 11 Noroeste 39 Noroeste 0 -- -- 40
2019-11-09 04:00:00 13.9 14 Noroeste 39 Norte 0 -- -- 39
2019-11-09 03:00:00 13.8 13 Norte 42 Norte 0 -- -- 39
2019-11-09 02:00:00 13.9 19 Noroeste 38 Norte 0 -- -- 39
2019-11-09 01:00:00 14.3 12 Norte 41 Noroeste 0 -- -- 38
2019-11-09 00:00:00 14.4 9 Norte 30 Norte 0 -- -- 38
2019-11-08 23:00:00 14.6 6 Norte 25 Norte 0 -- -- 36
2019-11-08 22:00:00 14.9 5 Norte 26 Norte 0 -- -- 35
2019-11-08 21:00:00 15.1 5 Norte 17 Norte 0 -- -- 34
2019-11-08 20:00:00 15.4 6 Norte 24 Norte 0 -- -- 33
2019-11-08 19:00:00 15.5 7 Norte 22 Noroeste 0 -- -- 34
2019-11-08 18:00:00 15.8 4 Norte 26 Noroeste 0 -- -- 35
2019-11-08 17:00:00 16.8 6 Norte 26 Noroeste 0 -- -- 35
2019-11-08 16:00:00 18.5 5 Norte 32 Nordeste 0 -- -- 32
2019-11-08 15:00:00 18.3 10 Norte 35 Nordeste 0 -- -- 33
2019-11-08 14:00:00 18.3 9 Nordeste 23 Nordeste 0 -- -- 35
2019-11-08 13:00:00 17.8 9 Norte 28 Noroeste 0 -- -- 36
2019-11-08 12:00:00 17 9 Norte 27 Nordeste 0 -- -- 40
2019-11-08 11:00:00 15.3 5 Norte 20 Noroeste 0 -- -- 46
2019-11-08 10:00:00 15.9 8 Nordeste 24 Este 0 -- -- 46
2019-11-08 09:00:00 14.1 5 Este 26 Sudeste 0 -- -- 50
2019-11-08 08:00:00 12.6 0 Calma 19 Norte 0 -- -- 55
2019-11-08 07:00:00 13.1 7 Norte 32 Norte 0 -- -- 51
2019-11-08 06:00:00 13.2 7 Norte 28 Noroeste 0 -- -- 52
2019-11-08 05:00:00 13.4 7 Noroeste 28 Noroeste 0 -- -- 52
2019-11-08 04:00:00 13.3 4 Oeste 20 Norte 0 -- -- 51
2019-11-08 03:00:00 13.5 5 Norte 28 Norte 0 -- -- 51
2019-11-08 02:00:00 14.3 10 Norte 49 Norte 0 -- -- 48
2019-11-08 01:00:00 14.6 17 Norte 42 Norte 0 -- -- 46
2019-11-08 00:00:00 15.2 12 Norte 41 Norte 0 -- -- 43
2019-11-07 23:00:00 15.6 9 Norte 33 Noroeste 0 -- -- 40
2019-11-07 22:00:00 16.4 9 Norte 41 Norte 0 -- -- 43
2019-11-07 21:00:00 16.6 8 Norte 28 Norte 0 -- -- 42
2019-11-07 20:00:00 16.8 9 Norte 26 Norte 0 -- -- 53
2019-11-07 19:00:00 16.8 4 Noroeste 14 Noroeste 0 -- -- 62
2019-11-07 18:00:00 17.3 3 Noroeste 19 Noroeste 0 -- -- 66
2019-11-07 17:00:00 18.2 3 Oeste 15 Norte 0 -- -- 75
2019-11-07 16:00:00 18.8 0 Calma 16 Norte 0.4 -- -- 84
2019-11-07 15:00:00 18.6 3 Norte 18 Sudoeste 0.6 -- -- 81
2019-11-07 14:00:00 19.9 6 Oeste 28 Sudoeste 0 -- -- 63
2019-11-07 13:00:00 21 10 Sudoeste 24 Sudoeste 0 -- -- 56
2019-11-07 12:00:00 20.6 7 Sur 14 Sur 0 -- -- 48
2019-11-07 11:00:00 19.6 6 Sudeste 12 Sudeste 0 -- -- 50
2019-11-07 10:00:00 18.4 3 Sudeste 8 Sur 0 -- -- 57
2019-11-07 09:00:00 16.3 2 Norte 9 Sudoeste 0 -- -- 63
2019-11-07 08:00:00 14.1 0 Calma 6 Nordeste 0 -- -- 71
2019-11-07 07:00:00 13.4 0 Calma 9 Norte 0 -- -- 71
2019-11-07 06:00:00 14.5 0 Calma 13 Sur 0 -- -- 65
2019-11-07 05:00:00 15.2 3 Noroeste 15 Noroeste 0 -- -- 64
2019-11-07 04:00:00 15.3 5 Norte 19 Noroeste 0 -- -- 62
2019-11-07 03:00:00 14.2 3 Norte 12 Norte 0 -- -- 65
2019-11-07 02:00:00 15.6 0 Calma 14 Noroeste 0 -- -- 60
2019-11-07 01:00:00 15.7 3 Noroeste 13 Norte 0 -- -- 57
2019-11-07 00:00:00 15.4 3 Noroeste 15 Norte 0 -- -- 57
2019-11-06 23:00:00 16.1 6 Noroeste 15 Noroeste 0 -- -- 53
2019-11-06 22:00:00 15.8 0 Calma 15 Noroeste 0 -- -- 49
2019-11-06 21:00:00 15.4 0 Calma 8 Norte 0 -- -- 50
2019-11-06 20:00:00 16.6 4 Noroeste 19 Noroeste 0 -- -- 47
2019-11-06 19:00:00 17.5 4 Norte 23 Norte 0 -- -- 45
2019-11-06 18:00:00 17.9 4 Norte 27 Nordeste 0 -- -- 43
2019-11-06 17:00:00 19.1 6 Norte 22 Noroeste 0 -- -- 38
2019-11-06 16:00:00 19.2 7 Norte 26 Nordeste 0 -- -- 35
2019-11-06 15:00:00 20.4 6 Nordeste 30 Oeste 0 -- -- 32
2019-11-06 14:00:00 20.5 9 Norte 43 Noroeste 0 -- -- 33
2019-11-06 13:00:00 19.9 8 Norte 34 Nordeste 0 -- -- 41
2019-11-06 12:00:00 19.2 8 Norte 25 Norte 0 -- -- 42
2019-11-06 11:00:00 18.2 7 Norte 29 Nordeste 0 -- -- 48
2019-11-06 10:00:00 16.6 6 Norte 25 Norte 0 -- -- 53
2019-11-06 09:00:00 15.2 4 Oeste 13 Oeste 0 -- -- 58
2019-11-06 08:00:00 13.6 3 Noroeste 14 Noroeste 0 -- -- 64
2019-11-06 07:00:00 14.2 6 Norte 27 Norte 0 -- -- 62
2019-11-06 06:00:00 14.4 8 Norte 36 Norte 0 -- -- 63
2019-11-06 05:00:00 14.8 8 Norte 29 Noroeste 0 -- -- 63
2019-11-06 04:00:00 15.1 8 Norte 30 Norte 0 -- -- 62
2019-11-06 03:00:00 15.2 7 Norte 27 Norte 0 -- -- 63
2019-11-06 02:00:00 15 3 Norte 10 Norte 0 -- -- 64
2019-11-06 01:00:00 15.9 2 Noroeste 15 Norte 0 -- -- 61
2019-11-06 00:00:00 16.3 2 Noroeste 12 Noroeste 0 -- -- 59
2019-11-05 23:00:00 16.3 2 Oeste 12 Sudoeste 0 -- -- 61
2019-11-05 22:00:00 16.8 3 Oeste 12 Noroeste 0 -- -- 61
2019-11-05 21:00:00 16.2 3 Oeste 9 Noroeste 0 -- -- 59
2019-11-05 20:00:00 16.4 0 Calma 6 Oeste 0 -- -- 53
2019-11-05 19:00:00 17.7 0 Calma 13 Sudoeste 0 -- -- 49
2019-11-05 18:00:00 18.5 3 Noroeste 19 Noroeste 0 -- -- 47
2019-11-05 17:00:00 19.6 4 Norte 24 Noroeste 0 -- -- 44
2019-11-05 16:00:00 19.8 6 Norte 28 Noroeste 0 -- -- 42
2019-11-05 15:00:00 19.1 6 Norte 23 Nordeste 0 -- -- 43
2019-11-05 14:00:00 20.4 10 Norte 34 Nordeste 0 -- -- 40
2019-11-05 13:00:00 19.3 8 Nordeste 30 Nordeste 0 -- -- 44
2019-11-05 12:00:00 19.5 8 Norte 30 Nordeste 0 -- -- 42
2019-11-05 11:00:00 18.9 8 Norte 35 Noroeste 0 -- -- 48
2019-11-05 10:00:00 17.5 10 Norte 31 Nordeste 0 -- -- 52
2019-11-05 09:00:00 16.3 11 Norte 36 Noroeste 0 -- -- 56
2019-11-05 08:00:00 15.6 10 Norte 36 Nordeste 0 -- -- 59
2019-11-05 07:00:00 15.6 8 Norte 30 Norte 0.2 -- -- 65
2019-11-05 06:00:00 15.4 6 Norte 27 Nordeste 0 -- -- 69
2019-11-05 05:00:00 15.5 6 Norte 23 Norte 0.4 -- -- 83
2019-11-05 04:00:00 16.7 6 Norte 23 Nordeste 0 -- -- 81
2019-11-05 03:00:00 16.8 0 Calma 9 Sudoeste 0 -- -- 66
2019-11-05 02:00:00 17.6 2 Oeste 13 Sudoeste 0 -- -- 62
2019-11-05 01:00:00 17.6 0 Calma 10 Noroeste 0 -- -- 59
2019-11-05 00:00:00 16.9 0 Calma 12 Oeste 0 -- -- 66
2019-11-04 23:00:00 17.4 3 Oeste 9 Sudoeste 0 -- -- 65
2019-11-04 22:00:00 19 3 Oeste 15 Noroeste 0 -- -- 62
2019-11-04 21:00:00 19.6 6 Noroeste 17 Norte 0 -- -- 53
2019-11-04 20:00:00 20.3 5 Norte 22 Noroeste 0 -- -- 49
2019-11-04 19:00:00 20.7 4 Norte 17 Nordeste 0 -- -- 53
2019-11-04 18:00:00 22.3 0 Calma 19 Noroeste 0 -- -- 47
2019-11-04 17:00:00 23.2 4 Norte 14 Nordeste 0 -- -- 44
2019-11-04 16:00:00 23 4 Este 14 Sur 0 -- -- 51
2019-11-04 15:00:00 23.8 7 Sudeste 14 Sudeste 0 -- -- 53
2019-11-04 14:00:00 22.6 5 Sur 15 Sudoeste 0 -- -- 58
2019-11-04 13:00:00 22.2 6 Sur 14 Este 0 -- -- 57
2019-11-04 12:00:00 22 6 Sudeste 14 Sudeste 0 -- -- 56
2019-11-04 11:00:00 21.3 6 Sudoeste 15 Sudeste 0 -- -- 59
2019-11-04 10:00:00 20.4 4 Norte 12 Noroeste 0 -- -- 64
2019-11-04 09:00:00 19.4 5 Norte 22 Norte 0 -- -- 67
2019-11-04 08:00:00 18.5 6 Norte 17 Norte 0 -- -- 71
2019-11-04 07:00:00 17.5 2 Noroeste 8 Norte 0 -- -- 72
2019-11-04 06:00:00 17.9 2 Noroeste 12 Norte 0 -- -- 71
2019-11-04 05:00:00 17.3 3 Noroeste 15 Oeste 0 -- -- 73
2019-11-04 04:00:00 17.6 3 Noroeste 12 Sudoeste 0 -- -- 74
2019-11-04 03:00:00 17.9 3 Oeste 7 Noroeste 0 -- -- 71
2019-11-04 02:00:00 18 0 Calma 9 Norte 0 -- -- 70
2019-11-04 01:00:00 18.7 0 Calma 14 Sudoeste 0 -- -- 68
2019-11-04 00:00:00 18.8 2 Oeste 9 Sudoeste 0 -- -- 69
2019-11-03 23:00:00 19.5 0 Calma 13 Oeste 0 -- -- 64
2019-11-03 22:00:00 19.7 4 Noroeste 13 Oeste 0 -- -- 68
2019-11-03 21:00:00 20.2 6 Oeste 17 Oeste 0 -- -- 63
2019-11-03 20:00:00 19.8 5 Noroeste 23 Sudoeste 0 -- -- 70
2019-11-03 19:00:00 21.6 2 Sudoeste 13 Noroeste 0 -- -- 54
2019-11-03 18:00:00 22.1 5 Noroeste 21 Oeste 0 -- -- 55
2019-11-03 17:00:00 23.4 7 Sur 30 Oeste 0 -- -- 50
2019-11-03 16:00:00 25.1 8 Oeste 34 Oeste 0 -- -- 43
2019-11-03 15:00:00 25.3 8 Noroeste 36 Nordeste 0 -- -- 45
2019-11-03 14:00:00 24.8 7 Norte 29 Norte 0 -- -- 43
2019-11-03 13:00:00 23.8 8 Sudoeste 32 Oeste 0 -- -- 48
2019-11-03 12:00:00 23.7 7 Oeste 27 Sudoeste 0 -- -- 46
2019-11-03 11:00:00 23.1 8 Nordeste 22 Nordeste 0 -- -- 46
2019-11-03 10:00:00 22 6 Norte 30 Norte 0 -- -- 48
2019-11-03 09:00:00 20.7 9 Norte 28 Noroeste 0 -- -- 57
2019-11-03 08:00:00 19 3 Norte 10 Noroeste 0 -- -- 72
2019-11-03 07:00:00 18.9 0 Calma 12 Noroeste 0 -- -- 68
2019-11-03 06:00:00 18.8 3 Norte 12 Oeste 0 -- -- 68
2019-11-03 05:00:00 18.6 4 Oeste 12 Oeste 0 -- -- 64
2019-11-03 04:00:00 18 2 Oeste 10 Oeste 0 -- -- 63
2019-11-03 03:00:00 18.2 0 Calma 11 Oeste 0 -- -- 64
2019-11-03 02:00:00 17 2 Sudoeste 6 Sur 0 -- -- 66
2019-11-03 01:00:00 17.7 0 Calma 4 Oeste 0 -- -- 62
2019-11-03 00:00:00 19.1 2 Oeste 13 Norte 0 -- -- 59
2019-11-02 23:00:00 18.1 0 Calma 7 Oeste 0 -- -- 60
2019-11-02 22:00:00 20 5 Sudoeste 18 Norte 0 -- -- 57
2019-11-02 21:00:00 19.6 3 Noroeste 13 Sudoeste 0 -- -- 57
2019-11-02 20:00:00 19.6 0 Calma 14 Oeste 0 -- -- 75
2019-11-02 19:00:00 20.1 2 Oeste 13 Sudoeste 0 -- -- 78
2019-11-02 18:00:00 21.3 4 Oeste 17 Oeste 0 -- -- 75
2019-11-02 17:00:00 21.6 8 Sudoeste 24 Sudoeste 0 -- -- 76
2019-11-02 16:00:00 22.5 11 Sudoeste 23 Sudoeste 0 -- -- 72
2019-11-02 15:00:00 21 10 Sudoeste 24 Sudoeste 0 -- -- 83
2019-11-02 14:00:00 20.3 8 Sudoeste 26 Sur 0 -- -- 85
2019-11-02 13:00:00 21.7 12 Sudoeste 30 Sudoeste 0 -- -- 75
2019-11-02 12:00:00 23.1 12 Sudoeste 25 Sur 0 -- -- 71
2019-11-02 11:00:00 21.6 8 Sudoeste 19 Sur 0 -- -- 82
2019-11-02 10:00:00 19.7 0 Calma 9 Oeste 0 -- -- 86
2019-11-02 09:00:00 21.7 3 Este 7 Nordeste 0 -- -- 69
2019-11-02 08:00:00 20 0 Calma 10 Sudoeste 0 -- -- 68
2019-11-02 07:00:00 20 0 Calma 14 Sudoeste 0 -- -- 62
2019-11-02 06:00:00 20.9 6 Oeste 15 Sudoeste 0 -- -- 63
2019-11-02 05:00:00 20.9 2 Noroeste 5 Norte 0 -- -- 60
2019-11-02 04:00:00 20.4 0 Calma 15 Sudoeste 0 -- -- 66
2019-11-02 03:00:00 20 0 Calma 14 Oeste 0 -- -- 71
2019-11-02 02:00:00 20.6 3 Sudoeste 9 Sudoeste 0 -- -- 70
2019-11-02 01:00:00 21.8 2 Norte 14 Noroeste 0 -- -- 62
2019-11-02 00:00:00 22.3 3 Noroeste 13 Noroeste 0 -- -- 62
2019-11-01 23:00:00 23 3 Noroeste 19 Noroeste 0 -- -- 59
2019-11-01 22:00:00 22.8 0 Calma 12 Oeste 0 -- -- 60
2019-11-01 21:00:00 23.5 3 Oeste 12 Oeste 0 -- -- 57
2019-11-01 20:00:00 24.3 2 Noroeste 18 Norte 0 -- -- 55
2019-11-01 19:00:00 24.4 0 Calma 9 Oeste 0 -- -- 55
2019-11-01 18:00:00 25.8 2 Oeste 13 Nordeste 0 -- -- 51
2019-11-01 17:00:00 26.5 5 Nordeste 25 Nordeste 0 -- -- 47
2019-11-01 16:00:00 27.4 4 Norte 28 Nordeste 0 -- -- 47
2019-11-01 15:00:00 26.7 7 Nordeste 24 Nordeste 0 -- -- 50
2019-11-01 14:00:00 26.9 8 Nordeste 30 Nordeste 0 -- -- 50
2019-11-01 13:00:00 25.2 7 Norte 29 Norte 0 -- -- 54
2019-11-01 12:00:00 26.6 9 Norte 33 Norte 0 -- -- 52
2019-11-01 11:00:00 25.2 7 Norte 36 Norte 0 -- -- 55
2019-11-01 10:00:00 23.9 6 Norte 29 Noroeste 0 -- -- 60
2019-11-01 09:00:00 22.8 6 Norte 21 Noroeste 0 -- -- 64
2019-11-01 08:00:00 21.7 5 Norte 32 Noroeste 0 -- -- 68
2019-11-01 07:00:00 21.6 7 Norte 20 Norte 0 -- -- 68
2019-11-01 06:00:00 21.9 5 Norte 23 Noroeste 0 -- -- 70
2019-11-01 05:00:00 22.3 10 Norte 30 Norte 0 -- -- 69
2019-11-01 04:00:00 22.7 5 Noroeste 28 Noroeste 0 -- -- 68
2019-11-01 03:00:00 22.9 8 Norte 35 Norte 0 -- -- 67
2019-11-01 02:00:00 23.3 8 Norte 26 Noroeste 0 -- -- 65
2019-11-01 01:00:00 23.3 3 Noroeste 13 Noroeste 0 -- -- 63
2019-11-01 00:00:00 23.6 3 Noroeste 17 Noroeste 0 -- -- 62
2019-10-31 23:00:00 23.8 3 Noroeste 19 Norte 0 -- -- 59
2019-10-31 22:00:00 24.2 5 Noroeste 19 Norte 0 -- -- 57
2019-10-31 21:00:00 24.4 6 Noroeste 19 Este 0 -- -- 55
2019-10-31 20:00:00 24.8 6 Norte 25 Noroeste 0 -- -- 53
2019-10-31 19:00:00 25 5 Norte 21 Oeste 0 -- -- 50
2019-10-31 18:00:00 25.6 6 Norte 24 Oeste 0 -- -- 47
2019-10-31 17:00:00 26.3 6 Norte 33 Noroeste 0 -- -- 44
2019-10-31 16:00:00 26.4 8 Norte 29 Norte 0 -- -- 45
2019-10-31 15:00:00 26.4 9 Norte 36 Noroeste 0 -- -- 46
2019-10-31 14:00:00 27.2 10 Norte 30 Noroeste 0 -- -- 47
2019-10-31 13:00:00 26.3 9 Norte 37 Norte 0 -- -- 50
2019-10-31 12:00:00 25.5 6 Norte 21 Nordeste 0 -- -- 53
2019-10-31 11:00:00 24.7 5 Norte 22 Norte 0 -- -- 55
2019-10-31 10:00:00 24.1 9 Norte 23 Norte 0 -- -- 58
2019-10-31 09:00:00 22.3 11 Norte 30 Norte 0 -- -- 62
2019-10-31 08:00:00 21.4 13 Norte 30 Noroeste 0 -- -- 64
2019-10-31 07:00:00 21.5 9 Norte 35 Noroeste 0 -- -- 63
2019-10-31 06:00:00 21.8 8 Norte 33 Norte 0 -- -- 61
2019-10-31 05:00:00 22.1 12 Norte 40 Norte 0 -- -- 59
2019-10-31 04:00:00 22.3 9 Norte 36 Norte 0 -- -- 57
2019-10-31 03:00:00 22.8 9 Norte 28 Noroeste 0 -- -- 55
2019-10-31 02:00:00 22.9 7 Norte 27 Norte 0 -- -- 52
2019-10-31 01:00:00 23 13 Noroeste 27 Noroeste 0 -- -- 50
2019-10-31 00:00:00 23.3 10 Noroeste 22 Noroeste 0 -- -- 49
2019-10-30 23:00:00 23.3 11 Noroeste 24 Noroeste 0 -- -- 49
2019-10-30 22:00:00 23.7 8 Norte 27 Noroeste 0 -- -- 47
2019-10-30 21:00:00 23.7 4 Norte 12 Norte 0 -- -- 48
2019-10-30 20:00:00 24.1 8 Noroeste 21 Noroeste 0 -- -- 45
2019-10-30 19:00:00 24.9 5 Noroeste 17 Norte 0 -- -- 40
2019-10-30 18:00:00 25.7 5 Norte 19 Nordeste 0 -- -- 37
2019-10-30 17:00:00 27 7 Nordeste 18 Nordeste 0 -- -- 37
2019-10-30 16:00:00 27 3 Norte 19 Nordeste 0 -- -- 36
2019-10-30 15:00:00 27.9 6 Norte 21 Noroeste 0 -- -- 34
2019-10-30 14:00:00 27 8 Nordeste 23 Nordeste 0 -- -- 37
2019-10-30 13:00:00 27.5 9 Norte 26 Norte 0 -- -- 37
2019-10-30 12:00:00 26.3 9 Noroeste 24 Noroeste 0 -- -- 43
2019-10-30 11:00:00 24.9 5 Norte 15 Noroeste 0 -- -- 48
2019-10-30 10:00:00 23.5 6 Este 21 Norte 0 -- -- 58
2019-10-30 09:00:00 20.6 4 Sudeste 14 Sudoeste 0 -- -- 71
2019-10-30 08:00:00 20.9 6 Oeste 30 Norte 0 -- -- 62
2019-10-30 07:00:00 21 12 Noroeste 28 Norte 0 -- -- 60
2019-10-30 06:00:00 21.1 12 Noroeste 31 Noroeste 0 -- -- 59
2019-10-30 05:00:00 21.4 13 Noroeste 33 Noroeste 0 -- -- 58
2019-10-30 04:00:00 21.2 12 Noroeste 32 Norte 0 -- -- 59
2019-10-30 03:00:00 21.2 14 Noroeste 29 Norte 0 -- -- 58
2019-10-30 02:00:00 21.4 14 Noroeste 33 Norte 0 -- -- 57
2019-10-30 01:00:00 21.9 13 Noroeste 33 Noroeste 0 -- -- 55
2019-10-30 00:00:00 22.2 14 Noroeste 33 Noroeste 0 -- -- 53
2019-10-29 23:00:00 22.6 14 Noroeste 33 Norte 0 -- -- 51
2019-10-29 22:00:00 22.9 13 Noroeste 29 Norte 0 -- -- 50
2019-10-29 21:00:00 22.8 10 Noroeste 25 Noroeste 0 -- -- 49
2019-10-29 20:00:00 23.2 9 Noroeste 20 Noroeste 0 -- -- 49
2019-10-29 19:00:00 23.9 8 Norte 19 Noroeste 0 -- -- 46
2019-10-29 18:00:00 24.8 3 Norte 15 Noroeste 0 -- -- 45
2019-10-29 17:00:00 25.3 4 Nordeste 15 Oeste 0 -- -- 43
2019-10-29 16:00:00 26.8 7 Este 20 Este 0 -- -- 38
2019-10-29 15:00:00 26.7 6 Sudeste 17 Norte 0 -- -- 43
2019-10-29 14:00:00 28 6 Norte 23 Noroeste 0 -- -- 39
2019-10-29 13:00:00 26.7 7 Noroeste 26 Norte 0 -- -- 41
2019-10-29 12:00:00 25.7 9 Norte 28 Noroeste 0 -- -- 47
2019-10-29 11:00:00 24.6 13 Noroeste 30 Noroeste 0 -- -- 49
2019-10-29 10:00:00 22.8 12 Noroeste 31 Norte 0 -- -- 58
2019-10-29 09:00:00 21 12 Norte 37 Norte 0 -- -- 64
2019-10-29 08:00:00 20 15 Noroeste 36 Noroeste 0 -- -- 65
2019-10-29 07:00:00 19.6 8 Sudoeste 31 Sudoeste 0 -- -- 66
2019-10-29 06:00:00 19.2 6 Noroeste 30 Norte 0 -- -- 67
2019-10-29 05:00:00 19.5 15 Noroeste 30 Norte 0 -- -- 69
2019-10-29 04:00:00 19.4 13 Noroeste 30 Noroeste 0 -- -- 70
2019-10-29 03:00:00 16.4 9 Norte 23 Noroeste 0 -- -- 94
2019-10-29 02:00:00 15.9 0 Calma 10 Nordeste 0 -- -- 94
2019-10-29 01:00:00 16.6 3 Norte 11 Nordeste 0 -- -- 93
2019-10-29 00:00:00 16.4 4 Nordeste 8 Nordeste 0 -- -- 92
2019-10-28 23:00:00 15.9 0 Calma 3 Norte 0 -- -- 90
2019-10-28 22:00:00 15.8 0 Calma 3 Sudoeste 0 -- -- 87
2019-10-28 21:00:00 16 0 Calma 2 Sudoeste 0 -- -- 88
2019-10-28 20:00:00 16.8 0 Calma 7 Nordeste 0 -- -- 87
2019-10-28 19:00:00 18 0 Calma 7 Nordeste 0 -- -- 82
2019-10-28 18:00:00 19.3 5 Oeste 21 Sudoeste 0 -- -- 78
2019-10-28 17:00:00 19.3 11 Sudoeste 22 Sudoeste 0 -- -- 77
2019-10-28 16:00:00 20.6 10 Sudoeste 19 Sur 0 -- -- 66
2019-10-28 15:00:00 21.3 8 Sur 18 Sur 0 -- -- 59
2019-10-28 14:00:00 20.8 8 Sur 18 Sudeste 0 -- -- 61
2019-10-28 13:00:00 21.3 7 Sur 14 Sur 0 -- -- 55
2019-10-28 12:00:00 20.8 6 Sudeste 12 Este 0 -- -- 55
2019-10-28 11:00:00 19.4 4 Sudeste 10 Sudeste 0 -- -- 63
2019-10-28 10:00:00 17 2 Sudoeste 5 Sudoeste 0 -- -- 74
2019-10-28 09:00:00 16 0 Calma 3 Sudeste 0 -- -- 75
2019-10-28 08:00:00 16.1 0 Calma 6 Sudoeste 0 -- -- 73
2019-10-28 07:00:00 15.8 0 Calma 3 Sudoeste 0 -- -- 75
2019-10-28 06:00:00 15.5 0 Calma 3 Oeste 0 -- -- 72
2019-10-28 05:00:00 16 0 Calma 3 Sudoeste 0 -- -- 72
2019-10-28 04:00:00 15.5 0 Calma 2 Oeste 0 -- -- 74
2019-10-28 03:00:00 15.2 0 Calma 2 Oeste 0 -- -- 74
2019-10-28 02:00:00 15 0 Calma 3 Noroeste 0 -- -- 79
2019-10-28 01:00:00 14.8 0 Calma 2 Noroeste 0 -- -- 81
2019-10-28 00:00:00 15 0 Calma 0 Calma 0 -- -- 80
2019-10-27 23:00:00 15.5 0 Calma 2 Noroeste 0 -- -- 78
2019-10-27 22:00:00 15.7 0 Calma 2 Oeste 0 -- -- 77
2019-10-27 21:00:00 15.9 0 Calma 2 Oeste 0 -- -- 82
2019-10-27 20:00:00 16.2 0 Calma 2 Oeste 0 -- -- 82
2019-10-27 19:00:00 17.3 0 Calma 6 Sudeste 0 -- -- 80
2019-10-27 18:00:00 18.9 0 Calma 8 Sudeste 0 -- -- 71
2019-10-27 17:00:00 20 3 Sudeste 8 Sudeste 0 -- -- 66
2019-10-27 16:00:00 21.7 5 Sudeste 10 Sudeste 0 -- -- 53
2019-10-27 15:00:00 21.5 7 Sudeste 12 Sudeste 0 -- -- 53
2019-10-27 14:00:00 21.6 8 Sudeste 14 Sudeste 0 -- -- 49
2019-10-27 13:00:00 21.6 7 Sudeste 14 Sudeste 0 -- -- 49
2019-10-27 12:00:00 21.7 6 Este 12 Sudeste 0 -- -- 46
2019-10-27 11:00:00 21.3 4 Este 12 Sudeste 0 -- -- 48
2019-10-27 10:00:00 20.7 4 Sudeste 8 Sudeste 0 -- -- 44
2019-10-27 09:00:00 18.1 0 Calma 4 Oeste 0 -- -- 54
2019-10-27 08:00:00 15.1 2 Sudoeste 3 Sudoeste 0 -- -- 54
2019-10-27 07:00:00 14.8 0 Calma 3 Noroeste 0 -- -- 60
2019-10-27 06:00:00 14.9 0 Calma 4 Noroeste 0 -- -- 57
2019-10-27 05:00:00 14.5 0 Calma 4 Este 0 -- -- 57
2019-10-27 04:00:00 15.1 0 Calma 2 Oeste 0 -- -- 55
2019-10-27 03:00:00 15.2 0 Calma 3 Oeste 0 -- -- 53
2019-10-27 02:00:00 16.3 0 Calma 4 Oeste 0 -- -- 47
2019-10-27 01:00:00 15.2 0 Calma 2 Noroeste 0 -- -- 57
2019-10-27 00:00:00 15.1 0 Calma 3 Noroeste 0 -- -- 56
2019-10-26 23:00:00 15.1 0 Calma 3 Noroeste 0 -- -- 59
2019-10-26 22:00:00 15.3 0 Calma 2 Norte 0 -- -- 60
2019-10-26 21:00:00 16.1 0 Calma 5 Oeste 0 -- -- 57
2019-10-26 20:00:00 18 2 Oeste 6 Sudeste 0 -- -- 55
2019-10-26 19:00:00 19.9 3 Sur 9 Sudeste 0 -- -- 50
2019-10-26 18:00:00 21.4 5 Sudoeste 13 Sudeste 0 -- -- 38
2019-10-26 17:00:00 22.5 6 Sur 13 Sur 0 -- -- 34
2019-10-26 16:00:00 23 6 Sur 14 Sur 0 -- -- 34
2019-10-26 15:00:00 22.9 7 Sur 16 Oeste 0 -- -- 34
2019-10-26 14:00:00 22.7 8 Sur 14 Sur 0 -- -- 34
2019-10-26 13:00:00 23.3 6 Sudeste 12 Sudeste 0 -- -- 36
2019-10-26 12:00:00 22.5 5 Sudeste 9 Sur 0 -- -- 36
2019-10-26 11:00:00 21 3 Sudeste 6 Este 0 -- -- 40
2019-10-26 10:00:00 17.3 0 Calma 3 Sudeste 0 -- -- 53
2019-10-26 09:00:00 14 0 Calma 3 Sudoeste 0 -- -- 60
2019-10-26 08:00:00 14 0 Calma 3 Sudoeste 0 -- -- 59
2019-10-26 07:00:00 14.3 0 Calma 3 Sudoeste 0 -- -- 58
2019-10-26 06:00:00 15.9 0 Calma 8 Oeste 0 -- -- 52
2019-10-26 05:00:00 15 0 Calma 3 Oeste 0 -- -- 53
2019-10-26 04:00:00 14.4 0 Calma 2 Oeste 0 -- -- 55
2019-10-26 03:00:00 14.5 0 Calma 3 Sudoeste 0 -- -- 54
2019-10-26 02:00:00 14.7 0 Calma 2 Sudoeste 0 -- -- 53
2019-10-26 01:00:00 14.6 0 Calma 2 Noroeste 0 -- -- 54
2019-10-26 00:00:00 14.7 0 Calma 2 Noroeste 0 -- -- 61
2019-10-25 23:00:00 15.1 0 Calma 2 Sudoeste 0 -- -- 53
2019-10-25 22:00:00 16 0 Calma 3 Sudoeste 0 -- -- 50
2019-10-25 21:00:00 16.4 0 Calma 4 Noroeste 0 -- -- 55
2019-10-25 20:00:00 17.6 0 Calma 5 Sudoeste 0 -- -- 47
2019-10-25 19:00:00 19.5 0 Calma 8 Sur 0 -- -- 43
2019-10-25 18:00:00 22 5 Sur 11 Sudeste 0 -- -- 35
2019-10-25 17:00:00 23.5 4 Sur 9 Sudeste 0 -- -- 34
2019-10-25 16:00:00 23.3 4 Sudeste 11 Este 0 -- -- 35
2019-10-25 15:00:00 23.3 4 Sudeste 10 Sudeste 0 -- -- 37
2019-10-25 14:00:00 22.5 5 Este 11 Sudeste 0 -- -- 37
2019-10-25 13:00:00 21.9 5 Este 12 Este 0 -- -- 39
2019-10-25 12:00:00 20.9 6 Este 11 Este 0 -- -- 44
2019-10-25 11:00:00 19.8 5 Este 13 Norte 0 -- -- 46
2019-10-25 10:00:00 18 3 Nordeste 10 Nordeste 0 -- -- 54
2019-10-25 09:00:00 15 0 Calma 6 Nordeste 0 -- -- 70
2019-10-25 08:00:00 14.9 0 Calma 10 Nordeste 0 -- -- 62
2019-10-25 07:00:00 15 2 Norte 9 Nordeste 0 -- -- 62
2019-10-25 06:00:00 15 2 Norte 6 Nordeste 0 -- -- 60
2019-10-25 05:00:00 15.1 2 Nordeste 6 Nordeste 0 -- -- 59
2019-10-25 04:00:00 15.2 0 Calma 7 Nordeste 0 -- -- 57
2019-10-25 03:00:00 15.5 0 Calma 4 Norte 0 -- -- 58
2019-10-25 02:00:00 15.9 0 Calma 4 Sudeste 0 -- -- 52
2019-10-25 01:00:00 16.7 0 Calma 6 Sudoeste 0 -- -- 49
2019-10-25 00:00:00 19.3 3 Noroeste 28 Noroeste 0 -- -- 40
2019-10-24 23:00:00 19.5 9 Noroeste 31 Norte 0 -- -- 40
2019-10-24 22:00:00 19.4 17 Noroeste 41 Noroeste 0 -- -- 41
2019-10-24 21:00:00 19.3 18 Noroeste 45 Norte 0 -- -- 42
2019-10-24 20:00:00 19.9 18 Noroeste 41 Noroeste 0 -- -- 40
2019-10-24 19:00:00 20.5 19 Noroeste 45 Norte 0 -- -- 39
2019-10-24 18:00:00 21.9 8 Norte 27 Nordeste 0 -- -- 36
2019-10-24 17:00:00 22.8 6 Norte 28 Nordeste 0 -- -- 35
2019-10-24 16:00:00 22.4 8 Nordeste 26 Nordeste 0 -- -- 37
2019-10-24 15:00:00 22 8 Norte 23 Nordeste 0 -- -- 38
2019-10-24 14:00:00 21.3 8 Norte 29 Nordeste 0 -- -- 40
2019-10-24 13:00:00 20.1 8 Nordeste 27 Nordeste 0 -- -- 43
2019-10-24 12:00:00 18.7 9 Nordeste 28 Nordeste 0 -- -- 48
2019-10-24 11:00:00 17.3 7 Norte 27 Oeste 0 -- -- 53
2019-10-24 10:00:00 16.1 6 Norte 23 Noroeste 0 -- -- 57
2019-10-24 09:00:00 13.8 5 Norte 16 Nordeste 0 -- -- 66
2019-10-24 08:00:00 12.9 0 Calma 8 Nordeste 0 -- -- 68
2019-10-24 07:00:00 13.6 0 Calma 14 Noroeste 0 -- -- 65
2019-10-24 06:00:00 13.9 0 Calma 7 Norte 0 -- -- 64
2019-10-24 05:00:00 14.6 4 Noroeste 15 Noroeste 0 -- -- 62
2019-10-24 04:00:00 15.6 0 Calma 12 Noroeste 0 -- -- 59
2019-10-24 03:00:00 16.3 2 Noroeste 10 Norte 0 -- -- 55
2019-10-24 02:00:00 16.9 0 Calma 13 Nordeste 0 -- -- 52
2019-10-24 01:00:00 16.9 0 Calma 9 Sudeste 0 -- -- 52
2019-10-24 00:00:00 16.8 2 Noroeste 10 Norte 0 -- -- 54
2019-10-23 23:00:00 17.7 3 Oeste 23 Oeste 0 -- -- 48
2019-10-23 22:00:00 17.6 5 Sudoeste 18 Sudoeste 0 -- -- 49
2019-10-23 21:00:00 17.1 0 Calma 13 Norte 0 -- -- 54
2019-10-23 20:00:00 17.1 4 Norte 29 Noroeste 0 -- -- 53
2019-10-23 19:00:00 18.1 6 Norte 24 Noroeste 0 -- -- 49
2019-10-23 18:00:00 19.6 4 Sur 13 Sur 0 -- -- 47
2019-10-23 17:00:00 18.8 3 Sudeste 23 Sudoeste 0 -- -- 50
2019-10-23 16:00:00 18.2 12 Sudoeste 30 Sudoeste 0 -- -- 55
2019-10-23 15:00:00 18.7 12 Sudoeste 30 Sudoeste 0 -- -- 59
2019-10-23 14:00:00 17.5 10 Sudoeste 34 Sudoeste 0 -- -- 61
2019-10-23 13:00:00 18.3 9 Sudoeste 29 Sudoeste 0 -- -- 61
2019-10-23 12:00:00 18.4 11 Sudoeste 26 Sur 0 -- -- 57
2019-10-23 11:00:00 17.5 3 Norte 18 Sudoeste 0 -- -- 54
2019-10-23 10:00:00 15.5 0 Calma 7 Nordeste 0 -- -- 61
2019-10-23 09:00:00 12.4 0 Calma 8 Sudoeste 0 -- -- 67
2019-10-23 08:00:00 11.7 0 Calma 3 Noroeste 0 -- -- 70
2019-10-23 07:00:00 12 0 Calma 4 Norte 0 -- -- 70
2019-10-23 06:00:00 12.2 0 Calma 4 Noroeste 0 -- -- 70
2019-10-23 05:00:00 12.4 0 Calma 4 Sudoeste 0 -- -- 66
2019-10-23 04:00:00 13.6 0 Calma 6 Oeste 0 -- -- 62
2019-10-23 03:00:00 13.3 0 Calma 6 Oeste 0 -- -- 68
2019-10-23 02:00:00 14.1 0 Calma 5 Norte 0 -- -- 60
2019-10-23 01:00:00 15.4 2 Norte 18 Nordeste 0 -- -- 50
2019-10-23 00:00:00 16.1 4 Norte 15 Norte 0 -- -- 48
2019-10-22 23:00:00 16.4 3 Nordeste 8 Nordeste 0 -- -- 57
2019-10-22 22:00:00 16.8 0 Calma 10 Noroeste 0 -- -- 49
2019-10-22 21:00:00 16.5 2 Norte 5 Nordeste 0 -- -- 54
2019-10-22 20:00:00 16.8 0 Calma 9 Sudoeste 0 -- -- 53
2019-10-22 19:00:00 18 4 Sudoeste 15 Sur 0 -- -- 48
2019-10-22 18:00:00 19.7 6 Sudoeste 22 Nordeste 0 -- -- 47
2019-10-22 17:00:00 20.2 11 Nordeste 26 Nordeste 0 -- -- 39
2019-10-22 16:00:00 20.8 8 Norte 33 Noroeste 0 -- -- 40
2019-10-22 15:00:00 20 10 Sudoeste 22 Sudoeste 0 -- -- 46
2019-10-22 14:00:00 18.4 11 Sudoeste 26 Sudoeste 0 -- -- 67
2019-10-22 13:00:00 19 12 Sudoeste 23 Sudoeste 0 -- -- 63
2019-10-22 12:00:00 18.4 4 Sudeste 14 Sudeste 0 -- -- 60
2019-10-22 11:00:00 18 7 Sudeste 11 Sudeste 0 -- -- 62
2019-10-22 10:00:00 16.6 3 Sur 6 Sudoeste 0 -- -- 61
2019-10-22 09:00:00 13.8 2 Sudoeste 11 Noroeste 0 -- -- 68
2019-10-22 08:00:00 12.9 0 Calma 5 Norte 0 -- -- 72
2019-10-22 07:00:00 13.8 0 Calma 10 Oeste 0 -- -- 73
2019-10-22 06:00:00 14.3 0 Calma 6 Noroeste 0 -- -- 76
2019-10-22 05:00:00 13.8 3 Noroeste 6 Noroeste 0 -- -- 84
2019-10-22 04:00:00 14.3 0 Calma 3 Noroeste 0 -- -- 86
2019-10-22 03:00:00 14.2 0 Calma 2 Oeste 0 -- -- 85
2019-10-22 02:00:00 14.1 0 Calma 2 Nordeste 0 -- -- 84
2019-10-22 01:00:00 14.2 0 Calma 3 Noroeste 0 -- -- 81
2019-10-22 00:00:00 14.3 0 Calma 3 Noroeste 0 -- -- 77
2019-10-21 23:00:00 15.3 0 Calma 5 Oeste 0 -- -- 75
2019-10-21 22:00:00 15.6 2 Oeste 7 Nordeste 0 -- -- 72
2019-10-21 21:00:00 15.8 0 Calma 6 Noroeste 0 -- -- 57
2019-10-21 20:00:00 16.8 3 Oeste 11 Sur 0 -- -- 55
2019-10-21 19:00:00 18 5 Sur 14 Oeste 0 -- -- 53
2019-10-21 18:00:00 19.7 8 Sudoeste 17 Sur 0 -- -- 43
2019-10-21 17:00:00 19.6 10 Sudoeste 20 Oeste 0 -- -- 48
2019-10-21 16:00:00 19.5 7 Sudoeste 18 Sudeste 0 -- -- 54
2019-10-21 15:00:00 20 7 Sudoeste 18 Oeste 0 -- -- 53
2019-10-21 14:00:00 19.8 6 Sudoeste 16 Sudeste 0 -- -- 55
2019-10-21 13:00:00 19.6 7 Sur 17 Sudeste 0 -- -- 54
2019-10-21 12:00:00 19.5 5 Sur 16 Sudeste 0 -- -- 54
2019-10-21 11:00:00 19.2 3 Noroeste 14 Sudoeste 0 -- -- 45
2019-10-21 10:00:00 17.9 2 Sur 14 Norte 0 -- -- 53
2019-10-21 09:00:00 15.8 4 Noroeste 16 Noroeste 0 -- -- 57
2019-10-21 08:00:00 15.6 7 Noroeste 22 Norte 0 -- -- 57
2019-10-21 07:00:00 15.6 8 Noroeste 21 Oeste 0 -- -- 58
2019-10-21 06:00:00 15.8 8 Noroeste 35 Noroeste 0 -- -- 56
2019-10-21 05:00:00 15.5 11 Noroeste 25 Noroeste 0 -- -- 58
2019-10-21 04:00:00 15.5 10 Noroeste 25 Norte 0 -- -- 57
2019-10-21 03:00:00 15.7 8 Noroeste 21 Norte 0 -- -- 57
2019-10-21 02:00:00 15.9 10 Noroeste 24 Noroeste 0 -- -- 55
2019-10-21 01:00:00 15.5 5 Noroeste 14 Noroeste 0 -- -- 58
2019-10-21 00:00:00 16.4 0 Calma 22 Norte 0 -- -- 55
2019-10-20 23:00:00 17.1 9 Noroeste 19 Norte 0 -- -- 53
2019-10-20 22:00:00 17.1 8 Norte 18 Norte 0 -- -- 52
2019-10-20 21:00:00 17.5 3 Norte 15 Noroeste 0 -- -- 50
2019-10-20 20:00:00 17.2 0 Calma 9 Nordeste 0 -- -- 51
2019-10-20 19:00:00 19.5 3 Sur 17 Oeste 0 -- -- 45
2019-10-20 18:00:00 19.6 3 Sudoeste 23 Sudoeste 0 -- -- 53
2019-10-20 17:00:00 20 10 Sudoeste 24 Sudoeste 0 -- -- 52
2019-10-20 16:00:00 19.9 9 Sudoeste 25 Oeste 0 -- -- 54
2019-10-20 15:00:00 19.8 13 Sudoeste 23 Sudoeste 0 -- -- 55
2019-10-20 14:00:00 19.8 10 Sudoeste 21 Oeste 0 -- -- 54
2019-10-20 13:00:00 19.4 7 Sur 18 Sudeste 0 -- -- 50
2019-10-20 12:00:00 19.1 6 Sudeste 12 Este 0 -- -- 56
2019-10-20 11:00:00 17.1 5 Sur 19 Noroeste 0 -- -- 64
2019-10-20 10:00:00 14.9 4 Noroeste 15 Noroeste 0 -- -- 73
2019-10-20 09:00:00 14.4 2 Oeste 10 Noroeste 0 -- -- 78
2019-10-20 08:00:00 13.9 3 Noroeste 24 Norte 1.2 -- -- 82
2019-10-20 07:00:00 15.8 9 Norte 24 Norte 0 -- -- 68
2019-10-20 06:00:00 16.3 9 Norte 22 Norte 0 -- -- 66
2019-10-20 05:00:00 16.2 5 Norte 33 Norte 0 -- -- 79
2019-10-20 04:00:00 16.4 8 Noroeste 26 Norte 1.8 -- -- 87
2019-10-20 03:00:00 18.4 3 Norte 15 Oeste 1.8 -- -- 93
2019-10-20 02:00:00 18.8 7 Sur 19 Sudoeste 0 -- -- 93
2019-10-20 01:00:00 19.4 9 Sudoeste 24 Sudoeste 3 -- -- 90
2019-10-20 00:00:00 20.2 4 Sur 21 Sudoeste 0 -- -- 80
2019-10-19 23:00:00 21.2 6 Sudoeste 25 Sudoeste 0 -- -- 72
2019-10-19 22:00:00 21.3 7 Sudoeste 25 Sudoeste 0 -- -- 69
2019-10-19 21:00:00 21.7 5 Sudoeste 25 Sudoeste 0 -- -- 67
2019-10-19 20:00:00 21.8 8 Sudoeste 21 Sudoeste 0 -- -- 68
2019-10-19 19:00:00 22.7 9 Sudoeste 25 Sudoeste 0 -- -- 64
2019-10-19 18:00:00 23.1 11 Sudoeste 26 Oeste 0 -- -- 60
2019-10-19 17:00:00 24.2 7 Sudoeste 31 Sudoeste 0 -- -- 54
2019-10-19 16:00:00 24.2 12 Sudoeste 29 Oeste 0 -- -- 56
2019-10-19 15:00:00 24.3 14 Sudoeste 28 Sudoeste 0 -- -- 58
2019-10-19 14:00:00 24 13 Sudoeste 27 Sudoeste 0 -- -- 54
2019-10-19 13:00:00 22.9 12 Sudoeste 19 Sudoeste 0 -- -- 57
2019-10-19 12:00:00 23.7 5 Sur 17 Sur 0 -- -- 58
2019-10-19 11:00:00 23.4 5 Sur 10 Sur 0 -- -- 59
2019-10-19 10:00:00 22.6 5 Sudeste 24 Norte 0 -- -- 57
2019-10-19 09:00:00 21 10 Noroeste 28 Noroeste 0 -- -- 62
2019-10-19 08:00:00 20.4 5 Noroeste 23 Noroeste 0 -- -- 64
2019-10-19 07:00:00 20.3 0 Calma 22 Noroeste 0 -- -- 66
2019-10-19 06:00:00 19.7 7 Noroeste 18 Noroeste 0 -- -- 71
2019-10-19 05:00:00 20.3 0 Calma 21 Norte 0 -- -- 70
2019-10-19 04:00:00 21 9 Noroeste 24 Norte 0 -- -- 66
2019-10-19 03:00:00 21.5 5 Noroeste 28 Noroeste 0 -- -- 65
2019-10-19 02:00:00 21.9 4 Oeste 26 Noroeste 0 -- -- 65
2019-10-19 01:00:00 20.8 5 Noroeste 26 Noroeste 0 -- -- 72
2019-10-19 00:00:00 22.5 9 Noroeste 24 Noroeste 0 -- -- 61
2019-10-18 23:00:00 19.4 6 Nordeste 12 Este 0 -- -- 86
2019-10-18 22:00:00 19.6 0 Calma 8 Nordeste 0 -- -- 84
2019-10-18 21:00:00 19.9 6 Nordeste 12 Nordeste 0 -- -- 83
2019-10-18 20:00:00 21.5 4 Norte 10 Nordeste 0 -- -- 71
2019-10-18 19:00:00 25.6 5 Sudoeste 16 Sudoeste 0 -- -- 44
2019-10-18 18:00:00 26.1 6 Sudoeste 21 Sudoeste 0 -- -- 41
2019-10-18 17:00:00 26.1 9 Sudoeste 22 Sudoeste 0 -- -- 36
2019-10-18 16:00:00 25.5 11 Sudoeste 28 Sudoeste 0 -- -- 42
2019-10-18 15:00:00 25.2 10 Sudoeste 22 Oeste 0 -- -- 41
2019-10-18 14:00:00 24.7 14 Sudoeste 23 Sudoeste 0 -- -- 42
2019-10-18 13:00:00 23.7 12 Sudoeste 23 Sudoeste 0 -- -- 43
2019-10-18 12:00:00 23.2 8 Sudoeste 20 Norte 0 -- -- 47
2019-10-18 11:00:00 22.9 9 Norte 22 Nordeste 0 -- -- 54
2019-10-18 10:00:00 20.3 7 Sur 15 Noroeste 0 -- -- 57
2019-10-18 09:00:00 18.6 8 Sudoeste 28 Noroeste 0 -- -- 57
2019-10-18 08:00:00 17.9 4 Sudoeste 21 Oeste 0 -- -- 59
2019-10-18 07:00:00 17.8 9 Oeste 17 Oeste 0 -- -- 59
2019-10-18 06:00:00 17.9 9 Sudoeste 15 Oeste 0 -- -- 63
2019-10-18 05:00:00 17.2 2 Oeste 5 Sudoeste 0 -- -- 71
2019-10-18 04:00:00 18.2 0 Calma 6 Este 0 -- -- 68
2019-10-18 03:00:00 20.9 2 Nordeste 19 Nordeste 0 -- -- 48
2019-10-18 02:00:00 22.7 5 Sudeste 40 Norte 0 -- -- 34
2019-10-18 01:00:00 22.8 15 Noroeste 35 Noroeste 0 -- -- 33
2019-10-18 00:00:00 23.1 13 Noroeste 34 Norte 0 -- -- 29